createdAt,value
2023-03-08T00:00:18.243Z,2.73
2023-03-08T00:05:21.706Z,3.27
2023-03-08T00:10:24.079Z,5.20
2023-03-08T00:15:25.850Z,1.97
2023-03-08T00:20:29.506Z,2.57
2023-03-08T00:25:31.639Z,2.97
2023-03-08T00:30:33.761Z,5.73
2023-03-08T00:35:36.863Z,3.87
2023-03-08T00:40:38.705Z,8.07
2023-03-08T00:45:40.728Z,3.07
2023-03-08T00:50:44.198Z,3.57
2023-03-08T00:55:50.929Z,2.43
2023-03-08T01:00:53.562Z,3.67
2023-03-08T01:05:57.956Z,6.23
2023-03-08T01:11:00.768Z,4.57
2023-03-08T01:16:03.112Z,5.10
2023-03-08T01:21:06.506Z,5.83
2023-03-08T01:26:11.643Z,5.20
2023-03-08T01:31:16.697Z,6.60
2023-03-08T01:36:22.343Z,5.83
2023-03-08T01:41:26.952Z,5.97
2023-03-08T01:46:30.268Z,7.60
2023-03-08T01:51:40.111Z,6.07
2023-03-08T01:56:44.380Z,5.37
2023-03-08T02:01:46.908Z,7.57
2023-03-08T02:06:50.410Z,8.63
2023-03-08T02:11:52.949Z,7.00
2023-03-08T02:16:55.476Z,8.53
2023-03-08T02:21:59.053Z,5.93
2023-03-08T02:27:07.526Z,5.67
2023-03-08T02:32:10.197Z,8.67
2023-03-08T02:37:12.300Z,9.53
2023-03-08T02:42:15.810Z,9.13
2023-03-08T02:47:18.357Z,9.53
2023-03-08T02:52:20.915Z,10.13
2023-03-08T02:57:24.389Z,6.27
2023-03-08T03:02:26.703Z,8.23
2023-03-08T03:07:28.852Z,10.03
2023-03-08T03:12:32.149Z,9.20
2023-03-08T03:17:34.780Z,7.07
2023-03-08T03:22:37.157Z,8.53
2023-03-08T03:27:40.824Z,8.43
2023-03-08T03:32:43.450Z,13.53
2023-03-08T03:37:45.617Z,7.47
2023-03-08T03:42:50.341Z,6.50
2023-03-08T03:47:52.272Z,6.90
2023-03-08T03:52:54.378Z,6.57
2023-03-08T03:57:57.820Z,8.47
2023-03-08T04:03:00.423Z,8.33
2023-03-08T04:08:02.549Z,6.90
2023-03-08T04:13:06.118Z,6.23
2023-03-08T04:18:08.274Z,8.20
2023-03-08T04:23:13.925Z,11.00
2023-03-08T04:28:17.507Z,14.17
2023-03-08T04:33:20.322Z,6.87
2023-03-08T04:38:22.284Z,6.33
2023-03-08T04:43:25.896Z,5.60
2023-03-08T04:48:28.539Z,7.07
2023-03-08T04:53:31.862Z,5.90
2023-03-08T04:58:36.382Z,6.73
2023-03-08T05:03:39.041Z,6.10
2023-03-08T05:08:41.832Z,8.00
2023-03-08T05:13:45.520Z,7.50
2023-03-08T05:18:47.791Z,5.43
2023-03-08T05:23:50.011Z,5.73
2023-03-08T05:28:53.453Z,7.53
2023-03-08T05:33:55.525Z,7.63
2023-03-08T05:39:00.383Z,7.73
2023-03-08T05:44:03.603Z,7.33
2023-03-08T05:49:06.116Z,12.93
2023-03-08T05:54:07.997Z,7.30
2023-03-08T05:59:11.591Z,8.13
2023-03-08T06:04:13.598Z,12.20
2023-03-08T06:09:15.766Z,7.50
2023-03-08T06:14:19.384Z,9.77
2023-03-08T06:19:21.491Z,12.23
2023-03-08T06:24:23.731Z,10.80
2023-03-08T06:29:26.841Z,11.77
2023-03-08T06:34:28.599Z,12.57
2023-03-08T06:39:30.808Z,7.17
2023-03-08T06:44:33.968Z,10.00
2023-03-08T06:49:36.255Z,14.20
2023-03-08T06:54:38.091Z,10.73
2023-03-08T06:59:41.590Z,12.77
2023-03-08T07:04:43.626Z,12.07
2023-03-08T07:09:45.863Z,13.50
2023-03-08T07:14:49.443Z,16.37
2023-03-08T07:19:51.253Z,14.97
2023-03-08T07:24:56.457Z,9.83
2023-03-08T07:30:00.313Z,13.17
2023-03-08T07:35:02.288Z,10.90
2023-03-08T07:40:06.247Z,11.83
2023-03-08T07:45:11.203Z,9.17
2023-03-08T07:50:13.307Z,10.40
2023-03-08T07:55:15.634Z,14.27
2023-03-08T08:00:20.739Z,10.07
2023-03-08T08:05:23.390Z,12.33
2023-03-08T08:10:25.591Z,11.17
2023-03-08T08:15:28.803Z,9.77
2023-03-08T08:20:30.775Z,8.43
2023-03-08T08:25:32.986Z,7.53
2023-03-08T08:30:36.307Z,9.70
2023-03-08T08:35:43.449Z,7.17
2023-03-08T08:40:47.186Z,9.03
2023-03-08T08:45:54.976Z,6.10
2023-03-08T08:50:58.225Z,5.40
2023-03-08T08:56:17.063Z,5.47
2023-03-08T09:01:30.834Z,5.80
2023-03-08T09:06:33.705Z,5.23
2023-03-08T09:11:39.813Z,6.73
2023-03-08T09:16:49.023Z,6.33
2023-03-08T09:21:51.179Z,5.77
2023-03-08T09:26:53.310Z,7.80
2023-03-08T09:31:58.631Z,4.73
2023-03-08T09:37:00.891Z,6.33
2023-03-08T09:42:04.195Z,3.73
2023-03-08T09:47:15.274Z,3.90
2023-03-08T09:52:22.717Z,3.63
2023-03-08T09:57:29.264Z,2.40
2023-03-08T10:02:40.167Z,3.27
2023-03-08T10:07:52.840Z,2.90
2023-03-08T10:13:27.323Z,2.00
2023-03-08T10:18:37.282Z,3.03
2023-03-08T10:23:40.864Z,3.70
2023-03-08T10:28:42.945Z,2.03
2023-03-08T10:33:46.279Z,4.57
2023-03-08T10:39:05.879Z,2.73
2023-03-08T10:44:15.257Z,2.90
2023-03-08T10:49:19.934Z,3.43
2023-03-08T10:54:22.396Z,4.50
2023-03-08T10:59:27.759Z,2.83
2023-03-08T11:04:31.657Z,3.30
2023-03-08T11:09:33.737Z,3.87
2023-03-08T11:14:36.561Z,2.60
2023-03-08T11:19:52.773Z,3.17
2023-03-08T11:25:16.916Z,2.20
2023-03-08T11:30:28.972Z,2.63
2023-03-08T11:35:38.887Z,2.60
2023-03-08T11:40:52.146Z,2.40
2023-03-08T11:46:00.259Z,2.47
2023-03-08T11:51:10.162Z,6.53
2023-03-08T11:56:45.733Z,4.00
2023-03-08T12:01:51.596Z,2.07
2023-03-08T12:06:55.733Z,3.63
2023-03-08T12:12:03.557Z,4.90
2023-03-08T12:17:13.294Z,4.73
2023-03-08T12:22:30.703Z,4.60
2023-03-08T12:27:41.005Z,3.50
2023-03-08T12:32:44.397Z,4.60
2023-03-08T12:37:57.174Z,2.70
2023-03-08T12:43:11.790Z,2.37
2023-03-08T12:48:24.454Z,3.43
2023-03-08T12:53:34.025Z,3.10
2023-03-08T12:58:40.545Z,4.53
2023-03-08T13:03:43.588Z,4.03
2023-03-08T13:08:53.376Z,4.10
2023-03-08T13:13:58.254Z,4.87
2023-03-08T13:19:06.925Z,6.17
2023-03-08T13:24:17.510Z,5.33
2023-03-08T13:29:21.235Z,7.10
2023-03-08T13:34:27.139Z,5.13
2023-03-08T13:39:31.588Z,7.83
2023-03-08T13:44:33.795Z,7.17
2023-03-08T13:49:38.604Z,4.40
2023-03-08T13:54:48.991Z,4.77
2023-03-08T13:59:52.883Z,4.70
2023-03-08T14:04:55.170Z,4.23
2023-03-08T14:09:59.583Z,5.60
2023-03-08T14:15:05.209Z,3.80
2023-03-08T14:20:19.429Z,5.90
2023-03-08T14:25:28.528Z,5.40
2023-03-08T14:30:31.003Z,4.67
2023-03-08T14:35:36.011Z,7.23
2023-03-08T14:40:49.736Z,5.83
2023-03-08T14:45:54.403Z,5.90
2023-03-08T14:50:58.305Z,4.30
2023-03-08T14:56:05.477Z,5.17
2023-03-08T15:01:07.640Z,7.27
2023-03-08T15:06:16.350Z,5.90
2023-03-08T15:11:19.535Z,4.43
2023-03-08T15:16:21.669Z,4.37
2023-03-08T15:21:29.265Z,7.97
2023-03-08T15:26:33.081Z,4.33
2023-03-08T15:31:35.292Z,2.90
2023-03-08T15:36:37.593Z,3.00
2023-03-08T15:41:41.491Z,4.03
2023-03-08T15:46:43.440Z,4.67
2023-03-08T15:51:45.317Z,5.13
2023-03-08T15:56:48.881Z,7.97
2023-03-08T16:01:50.604Z,4.00
2023-03-08T16:06:52.370Z,5.67
2023-03-08T16:11:56.059Z,7.87
2023-03-08T16:16:58.563Z,6.20
2023-03-08T16:22:01.193Z,5.90
2023-03-08T16:27:04.768Z,5.27
2023-03-08T16:32:07.736Z,7.97
2023-03-08T16:37:10.139Z,6.17
2023-03-08T16:42:13.809Z,8.23
2023-03-08T16:47:15.779Z,5.97
2023-03-08T16:52:17.758Z,10.67
2023-03-08T16:57:21.227Z,8.57
2023-03-08T17:02:23.238Z,5.50
2023-03-08T17:07:25.700Z,9.90
2023-03-08T17:12:29.007Z,8.10
2023-03-08T17:17:31.089Z,7.63
2023-03-08T17:22:33.461Z,7.23
2023-03-08T17:27:36.969Z,9.93
2023-03-08T17:32:39.212Z,8.27
2023-03-08T17:37:41.493Z,11.40
2023-03-08T17:42:45.252Z,10.20
2023-03-08T17:47:48.064Z,10.97
2023-03-08T17:52:49.824Z,9.83
2023-03-08T17:57:53.181Z,10.07
2023-03-08T18:02:55.471Z,7.30
2023-03-08T18:07:57.758Z,6.97
2023-03-08T18:13:00.861Z,7.33
2023-03-08T18:18:03.367Z,10.27
2023-03-08T18:23:05.290Z,9.07
2023-03-08T18:28:08.447Z,7.90
2023-03-08T18:33:10.904Z,9.70
2023-03-08T18:38:12.600Z,6.33
2023-03-08T18:43:16.031Z,7.43
2023-03-08T18:48:17.849Z,8.33
2023-03-08T18:53:19.785Z,8.20
2023-03-08T18:58:23.445Z,7.57
2023-03-08T19:03:26.128Z,8.17
2023-03-08T19:08:27.974Z,6.60
2023-03-08T19:13:31.186Z,7.50
2023-03-08T19:18:33.457Z,5.13
2023-03-08T19:23:35.223Z,6.87
2023-03-08T19:28:39.114Z,7.20
2023-03-08T19:33:42.058Z,8.50
2023-03-08T19:38:43.920Z,7.30
2023-03-08T19:43:47.417Z,8.03
2023-03-08T19:48:50.147Z,6.87
2023-03-08T19:53:53.999Z,6.70
2023-03-08T19:58:57.784Z,8.70
2023-03-08T20:04:03.320Z,9.33
2023-03-08T20:09:07.621Z,6.27
2023-03-08T20:14:11.789Z,11.17
2023-03-08T20:19:14.400Z,6.37
2023-03-08T20:24:16.842Z,9.43
2023-03-08T20:29:20.542Z,8.10
2023-03-08T20:34:22.831Z,6.60
2023-03-08T20:39:25.119Z,5.93
2023-03-08T20:44:29.303Z,6.90
2023-03-08T20:49:31.809Z,11.90
2023-03-08T20:54:33.676Z,6.67
2023-03-08T20:59:37.381Z,7.50
2023-03-08T21:04:39.546Z,8.07
2023-03-08T21:09:43.896Z,8.53
2023-03-08T21:14:50.745Z,7.60
2023-03-08T21:19:53.369Z,8.07
2023-03-08T21:24:55.203Z,6.40
2023-03-08T21:29:58.861Z,7.80
2023-03-08T21:35:00.811Z,7.93
2023-03-08T21:40:02.632Z,6.33
2023-03-08T21:45:06.994Z,8.97
2023-03-08T21:50:10.484Z,7.07
2023-03-08T21:55:12.890Z,7.87
2023-03-08T22:00:18.279Z,7.13
2023-03-08T22:05:20.116Z,7.57
2023-03-08T22:10:22.377Z,8.40
2023-03-08T22:15:25.903Z,7.90
2023-03-08T22:20:28.253Z,6.47
2023-03-08T22:25:32.696Z,7.70
2023-03-08T22:30:36.203Z,9.10
2023-03-08T22:35:38.446Z,6.63
2023-03-08T22:40:41.236Z,6.53
2023-03-08T22:45:44.731Z,8.73
2023-03-08T22:50:46.806Z,9.83
2023-03-08T22:55:48.710Z,10.47
2023-03-08T23:00:52.200Z,9.07
2023-03-08T23:05:54.462Z,10.53
2023-03-08T23:10:56.810Z,9.83
2023-03-08T23:16:00.920Z,9.40
2023-03-08T23:21:04.590Z,9.80
2023-03-08T23:26:08.824Z,9.27
2023-03-08T23:31:13.947Z,11.87
2023-03-08T23:36:18.534Z,9.23
2023-03-08T23:41:21.081Z,10.77
2023-03-08T23:46:25.285Z,8.90
2023-03-08T23:51:29.709Z,10.10
2023-03-08T23:56:33.875Z,10.03
